Time;durP1;ratioP1;P1;durP2;ratioP2;P2;SDS_P1;SDS_P2;PMS_P1;PMS_P2;Temp;Humidity;BMP_temperature;BMP_pressure;BME280_temperature;BME280_humidity;BME280_pressure;Samples;Min_cycle;Max_cycle;Signal;HPM_P1;HPM_P2
2021/05/12 00:02:44;;;;;;;5.90;4.10;;;;;;;16.66;46.09;97811.20;258434;1105;22795;-68
2021/05/12 00:09:14;;;;;;;6.05;3.45;;;;;;;16.72;46.43;97817.92;258379;1106;22789;-69
2021/05/12 00:16:11;;;;;;;4.95;3.85;;;;;;;16.84;46.62;97808.90;258379;1111;22806;-69
2021/05/12 00:29:01;;;;;;;5.87;4.20;;;;;;;16.35;47.27;97802.78;258464;1111;22809;-70
2021/05/12 00:35:26;;;;;;;;;;;;;;;;;;;;;
2021/05/12 00:49:16;;;;;;;;;;;;;;;;;;;;;
2021/05/12 00:55:45;;;;;;;;;;;;;;;;;;;;;
2021/05/12 01:02:33;;;;;;;5.30;4.35;;;;;;;15.40;50.47;97777.25;258322;1103;22797;-68
2021/05/12 01:08:39;;;;;;;;;;;;;;;;;;;;;
2021/05/12 01:15:00;;;;;;;7.25;4.65;;;;;;;14.98;51.67;97782.23;258384;1110;22803;-68
2021/05/12 01:21:40;;;;;;;8.20;5.30;;;;;;;14.92;52.08;97781.69;258423;1103;27689;-68
2021/05/12 01:28:42;;;;;;;7.50;4.90;;;;;;;14.90;52.91;97765.08;258414;1103;22919;-68
2021/05/12 01:35:12;;;;;;;7.95;5.40;;;;;;;14.80;53.10;97766.34;258458;1110;23240;-69
2021/05/12 01:42:00;;;;;;;6.73;5.73;;;;;;;14.62;53.60;97765.80;258388;1103;22767;-69
2021/05/12 01:48:46;;;;;;;8.00;5.03;;;;;;;14.43;54.14;97752.88;258254;1111;22781;-68
2021/05/12 02:08:06;;;;;;;7.95;5.90;;;;;;;14.15;55.95;97753.56;258269;1103;22811;-69
2021/05/12 02:14:35;;;;;;;;;;;;;;;;;;;;;
2021/05/12 02:21:11;;;;;;;7.30;4.95;;;;;;;14.14;56.99;97745.82;258261;1103;24296;-69
2021/05/12 02:27:53;;;;;;;;;;;;;;;;;;;;;
2021/05/12 02:41:57;;;;;;;7.60;5.70;;;;;;;13.92;57.88;97728.20;258021;1105;22879;-69
2021/05/12 02:55:20;;;;;;;11.37;6.90;;;;;;;13.76;58.92;97731.55;258397;1103;22777;-70
2021/05/12 03:02:18;;;;;;;8.45;6.20;;;;;;;13.72;59.45;97729.87;258294;1103;22876;-68
2021/05/12 03:09:12;;;;;;;10.10;6.45;;;;;;;13.69;59.19;97723.23;258384;1111;22874;-68
2021/05/12 03:15:59;;;;;;;9.30;6.10;;;;;;;13.69;59.70;97725.94;258502;1111;24421;-68
2021/05/12 03:23:01;;;;;;;;;;;;;;;;;;;;;
2021/05/12 03:29:46;;;;;;;8.75;6.30;;;;;;;13.82;60.20;97726.73;258281;1103;26305;-68
2021/05/12 03:36:20;;;;;;;9.20;6.25;;;;;;;14.06;60.34;97725.98;258324;1110;22845;-68
2021/05/12 03:42:54;;;;;;;11.87;6.80;;;;;;;14.47;60.06;97726.83;258350;1111;22996;-68
2021/05/12 03:49:31;;;;;;;8.35;5.75;;;;;;;14.80;59.69;97723.20;258477;1105;25862;-68
2021/05/12 03:56:08;;;;;;;8.10;5.90;;;;;;;14.95;59.16;97721.67;258338;1110;22845;-68
2021/05/12 04:02:53;;;;;;;8.75;5.65;;;;;;;14.96;59.04;97719.78;258743;1103;25896;-69
2021/05/12 04:09:30;;;;;;;;;;;;;;;;;;;;;
2021/05/12 04:22:04;;;;;;;;;;;;;;;;;;;;;
2021/05/12 04:28:27;;;;;;;;;;;;;;;;;;;;;
2021/05/12 04:35:18;;;;;;;;;;;;;;;;;;;;;
2021/05/12 04:40:56;;;;;;;9.25;6.80;;;;;;;15.29;60.72;97714.13;258409;1110;24999;-68
2021/05/12 04:47:34;;;;;;;;;;;;;;;;;;;;;
2021/05/12 04:54:17;;;;;;;9.35;7.40;;;;;;;15.70;61.68;97706.67;258363;1110;22788;-69
2021/05/12 05:01:02;;;;;;;9.45;6.95;;;;;;;15.99;61.41;97710.10;258403;1110;22813;-69
2021/05/12 05:07:16;;;;;;;9.53;7.63;;;;;;;16.24;61.06;97716.08;258461;1103;23261;-68
2021/05/12 05:14:05;;;;;;;11.50;6.95;;;;;;;16.49;61.15;97704.25;258476;1103;22788;-69
2021/05/12 05:26:08;;;;;;;9.45;6.80;;;;;;;16.99;60.47;97716.12;258842;1110;24301;-69
2021/05/12 05:31:21;;;;;;;8.70;6.40;;;;;;;17.26;60.10;97717.03;258084;1110;22782;-68
2021/05/12 05:36:49;;;;;;;10.90;7.45;;;;;;;17.46;60.11;97719.70;257771;1103;24166;-68
2021/05/12 05:42:35;;;;;;;8.50;7.17;;;;;;;17.70;59.87;97717.80;257992;1103;24185;-68
2021/05/12 05:48:39;;;;;;;8.90;7.10;;;;;;;17.99;59.50;97715.56;257938;1103;22807;-67
2021/05/12 05:55:25;;;;;;;10.50;6.60;;;;;;;18.21;58.99;97703.89;257808;1111;22862;-68
2021/05/12 06:02:07;;;;;;;8.60;6.20;;;;;;;18.60;58.63;97706.37;258167;1103;25733;-65
2021/05/12 06:08:11;;;;;;;7.15;6.10;;;;;;;18.94;58.24;97714.59;256836;1106;22793;-66
2021/05/12 06:14:06;;;;;;;;;;;;;;;;;;;;;
2021/05/12 06:27:36;;;;;;;10.60;6.40;;;;;;;19.81;56.52;97710.82;257575;1110;22786;-67
2021/05/12 06:33:53;;;;;;;7.90;6.00;;;;;;;20.12;56.25;97705.23;259449;1103;22886;-67
2021/05/12 06:40:01;;;;;;;6.67;5.00;;;;;;;20.43;56.08;97703.86;258375;1110;22851;-66
2021/05/12 06:46:15;;;;;;;;;;;;;;;;;;;;;
2021/05/12 06:51:35;;;;;;;10.40;5.20;;;;;;;21.05;55.34;97696.00;258140;1103;22851;-69
2021/05/12 06:57:31;;;;;;;;;;;;;;;;;;;;;
2021/05/12 07:03:39;;;;;;;6.48;4.63;;;;;;;21.65;54.26;97681.72;258219;1110;22749;-69
2021/05/12 07:09:53;;;;;;;5.23;4.43;;;;;;;21.99;53.44;97680.55;258903;1103;23073;-70
2021/05/12 07:15:55;;;;;;;7.50;4.48;;;;;;;22.39;52.76;97678.56;259797;1103;22997;-69
2021/05/12 07:21:08;;;;;;;5.60;4.55;;;;;;;22.72;50.94;97673.75;259310;1104;22864;-69
2021/05/12 07:26:45;;;;;;;;;;;;;;;;;;;;;
2021/05/12 07:32:54;;;;;;;3.85;3.45;;;;;;;23.26;49.17;97673.52;258003;1109;22860;-68
2021/05/12 07:39:09;;;;;;;4.30;3.58;;;;;;;23.56;48.42;97669.40;258071;1103;22782;-69
2021/05/12 07:45:13;;;;;;;;;;;;;;;;;;;;;
2021/05/12 07:52:14;;;;;;;;;;;;;;;;;;;;;
2021/05/12 07:58:19;;;;;;;5.58;3.48;;;;;;;24.38;45.71;97667.89;258186;1103;22870;-69
2021/05/12 08:04:40;;;;;;;;;;;;;;;;;;;;;
2021/05/12 08:10:45;;;;;;;;;;;;;;;;;;;;;
2021/05/12 08:16:35;;;;;;;;;;;;;;;;;;;;;
2021/05/12 08:22:21;;;;;;;;;;;;;;;25.23;42.87;97652.78;259538;1103;22800;-71
2021/05/12 08:28:27;;;;;;;5.25;3.03;;;;;;;25.38;42.16;97639.66;259570;1103;21477;-71
2021/05/12 08:35:00;;;;;;;4.05;3.58;;;;;;;25.54;41.56;97641.77;259620;1105;23446;-69
2021/05/12 08:40:48;;;;;;;4.85;3.53;;;;;;;25.69;41.23;97647.80;259467;1111;22858;-70
2021/05/12 08:53:36;;;;;;;3.30;2.90;;;;;;;25.95;40.02;97629.70;259392;1106;23125;-70
2021/05/12 08:59:41;;;;;;;4.70;3.48;;;;;;;26.06;39.63;97638.54;259698;1106;22838;-71
2021/05/12 09:05:34;;;;;;;;;;;;;;;;;;;;;
2021/05/12 09:11:32;;;;;;;4.40;4.00;;;;;;;26.53;39.17;97631.41;259562;1103;22782;-70
2021/05/12 09:17:33;;;;;;;6.23;3.57;;;;;;;26.64;38.05;97615.48;259461;1103;22882;-69
2021/05/12 09:24:24;;;;;;;5.20;3.13;;;;;;;26.69;37.78;97611.45;259378;1103;22802;-70
2021/05/12 09:30:57;;;;;;;3.40;3.10;;;;;;;26.80;37.85;97607.28;259469;1103;22786;-69
2021/05/12 09:38:05;;;;;;;2.93;2.68;;;;;;;26.93;36.07;97601.13;258114;1103;27802;-70
2021/05/12 09:43:59;;;;;;;3.77;3.20;;;;;;;27.06;35.93;97591.03;258151;1111;22782;-69
2021/05/12 09:49:14;;;;;;;3.00;2.80;;;;;;;27.20;35.71;97594.63;259566;1103;26098;-69
2021/05/12 09:54:29;;;;;;;4.43;3.05;;;;;;;27.48;36.27;97588.48;258664;1103;26474;-71
2021/05/12 09:59:54;;;;;;;4.50;3.38;;;;;;;27.77;35.26;97592.47;259649;1108;22813;-69
2021/05/12 10:05:27;;;;;;;3.23;2.98;;;;;;;27.76;34.26;97579.95;258133;1110;22938;-68
2021/05/12 10:10:41;;;;;;;3.58;3.08;;;;;;;27.75;33.96;97581.91;259574;1103;22819;-69
2021/05/12 10:15:48;;;;;;;3.35;3.03;;;;;;;27.90;33.94;97578.77;258364;1110;22810;-69
2021/05/12 10:20:57;;;;;;;3.68;3.38;;;;;;;28.05;33.92;97565.43;259067;1107;25411;-72
2021/05/12 10:26:11;;;;;;;3.58;2.95;;;;;;;28.34;33.89;97574.45;258161;1110;22810;-69
2021/05/12 10:31:15;;;;;;;3.90;2.90;;;;;;;28.61;33.48;97575.23;257919;1110;25537;-68
2021/05/12 10:36:24;;;;;;;4.10;3.10;;;;;;;28.79;33.10;97572.77;258181;1108;22965;-69
2021/05/12 10:41:47;;;;;;;3.27;3.00;;;;;;;28.99;32.91;97560.75;258022;1103;22814;-69
2021/05/12 10:47:19;;;;;;;4.03;3.20;;;;;;;29.22;32.70;97564.36;258712;1103;23095;-69
2021/05/12 10:52:25;;;;;;;3.40;3.10;;;;;;;29.48;31.73;97556.84;258412;1110;24035;-70
2021/05/12 10:57:47;;;;;;;3.73;3.07;;;;;;;29.58;30.97;97546.63;258190;1103;22782;-69
2021/05/12 11:03:40;;;;;;;4.10;3.40;;;;;;;29.60;31.69;97549.72;259551;1103;25840;-70
2021/05/12 11:09:25;;;;;;;4.53;3.15;;;;;;;29.42;31.42;97550.33;258294;1103;22924;-70
2021/05/12 11:15:15;;;;;;;;;;;;;;;;;;;;;
2021/05/12 11:21:41;;;;;;;3.87;3.57;;;;;;;28.74;31.42;97543.00;258437;1106;22988;-70
2021/05/12 11:32:58;;;;;;;3.90;3.50;;;;;;;29.21;30.96;97521.45;259884;1111;22820;-69
2021/05/12 11:38:26;;;;;;;4.10;3.68;;;;;;;29.40;30.90;97520.44;260294;1111;22857;-69
2021/05/12 11:44:08;;;;;;;3.90;3.45;;;;;;;29.58;30.32;97516.28;259519;1111;22806;-70
2021/05/12 11:49:19;;;;;;;7.90;3.40;;;;;;;29.76;29.41;97516.44;258262;1111;22827;-70
2021/05/12 11:54:39;;;;;;;3.13;2.83;;;;;;;29.80;28.84;97499.74;259760;1110;22762;-69
2021/05/12 12:00:07;;;;;;;3.40;3.10;;;;;;;29.85;29.07;97490.92;258756;1105;23300;-69
2021/05/12 12:06:01;;;;;;;4.23;3.18;;;;;;;29.58;28.55;97485.93;258343;1103;22850;-70
2021/05/12 12:11:13;;;;;;;3.78;3.10;;;;;;;28.97;28.67;97480.47;259544;1110;22864;-69
2021/05/12 12:16:33;;;;;;;4.55;3.13;;;;;;;28.80;28.66;97472.34;259478;1103;22811;-70
2021/05/12 12:22:18;;;;;;;3.60;3.30;;;;;;;28.95;29.54;97466.38;259512;1103;22845;-70
2021/05/12 12:29:02;;;;;;;;;;;;;;;;;;;;;
2021/05/12 12:34:48;;;;;;;4.63;3.50;;;;;;;29.25;29.14;97462.23;259511;1110;22864;-70
2021/05/12 12:40:28;;;;;;;;;;;;;;;29.44;28.72;97451.38;258395;1110;22767;-70
2021/05/12 12:53:03;;;;;;;;;;;;;;;;;;;;;
2021/05/12 13:05:32;;;;;;;3.38;3.08;;;;;;;29.61;28.82;97421.61;259922;1103;22860;-70
2021/05/12 13:11:06;;;;;;;3.50;3.20;;;;;;;29.66;28.25;97418.24;260090;1104;25518;-71
2021/05/12 13:16:36;;;;;;;3.78;3.40;;;;;;;29.74;28.04;97410.48;260311;1106;22686;-71
2021/05/12 13:21:58;;;;;;;4.40;3.58;;;;;;;29.93;28.57;97414.16;260159;1110;22891;-70
2021/05/12 13:27:11;;;;;;;3.63;3.33;;;;;;;30.06;28.43;97408.55;259541;1103;26024;-69
2021/05/12 13:32:31;;;;;;;4.10;3.50;;;;;;;30.11;28.01;97389.39;258158;1108;24590;-67
2021/05/12 13:37:47;;;;;;;3.40;3.10;;;;;;;30.12;27.78;97390.15;258471;1102;26284;-68
2021/05/12 13:43:20;;;;;;;5.10;3.40;;;;;;;30.13;28.35;97384.17;258376;1103;22806;-68
2021/05/12 13:48:33;;;;;;;3.55;3.25;;;;;;;30.30;27.27;97376.41;258168;1110;22873;-68
2021/05/12 13:54:12;;;;;;;5.47;4.17;;;;;;;30.48;27.35;97361.91;258277;1111;22763;-70
2021/05/12 14:00:10;;;;;;;3.50;3.20;;;;;;;30.49;27.03;97360.69;257954;1111;22789;-68
2021/05/12 14:04:44;;;;;;;8.07;4.23;;;;;;;30.46;28.87;97356.08;257606;1106;24588;-68
2021/05/12 14:10:05;;;;;;;4.60;4.20;;;;;;;30.50;28.73;97345.66;260151;1111;22945;-69
2021/05/12 14:22:12;;;;;;;5.10;3.78;;;;;;;30.64;27.28;97326.92;258486;1105;22813;-69
2021/05/12 14:27:32;;;;;;;5.13;3.88;;;;;;;30.71;27.85;97327.41;258608;1110;22786;-69
2021/05/12 14:33:04;;;;;;;3.55;3.25;;;;;;;30.83;27.78;97322.19;258132;1110;22861;-69
2021/05/12 14:39:38;;;;;;;4.97;3.57;;;;;;;30.89;27.14;97317.57;258194;1103;22811;-69
2021/05/12 14:46:10;;;;;;;4.78;4.10;;;;;;;30.70;28.13;97309.28;259507;1111;26772;-70
2021/05/12 14:51:36;;;;;;;5.37;4.33;;;;;;;30.28;28.09;97301.53;259203;1105;22815;-70
2021/05/12 14:56:49;;;;;;;5.50;4.13;;;;;;;30.12;29.22;97302.58;258864;1105;22861;-69
2021/05/12 15:07:26;;;;;;;4.40;4.00;;;;;;;30.01;28.60;97293.94;258042;1106;22802;-69
2021/05/12 15:13:30;;;;;;;3.68;3.38;;;;;;;30.05;29.24;97289.05;258196;1104;22816;-69
2021/05/12 15:19:42;;;;;;;;;;;;;;;;;;;;;
2021/05/12 15:25:58;;;;;;;4.48;4.08;;;;;;;29.85;28.69;97270.89;258221;1103;22786;-68
2021/05/12 15:32:12;;;;;;;;;;;;;;;;;;;;;
2021/05/12 15:38:44;;;;;;;3.73;3.23;;;;;;;29.13;29.14;97264.52;258290;1104;22883;-68
2021/05/12 15:45:26;;;;;;;3.25;2.73;;;;;;;28.92;30.01;97258.59;258259;1103;22800;-70
2021/05/12 15:59:16;;;;;;;3.18;2.83;;;;;;;28.27;30.04;97282.80;258136;1111;22917;-69
2021/05/12 16:05:57;;;;;;;4.25;3.60;;;;;;;28.02;32.43;97277.34;258129;1103;22759;-68
2021/05/12 16:12:53;;;;;;;5.05;3.83;;;;;;;27.60;33.54;97276.20;257656;1106;22901;-69
2021/05/12 16:19:29;;;;;;;;;;;;;;;;;;;;;
2021/05/12 16:33:13;;;;;;;3.38;3.08;;;;;;;26.70;34.49;97278.73;257881;1111;22832;-69
2021/05/12 16:39:32;;;;;;;;;;;;;;;;;;;;;
2021/05/12 16:46:11;;;;;;;4.25;3.35;;;;;;;25.99;35.02;97273.01;257870;1103;24598;-68
2021/05/12 16:52:31;;;;;;;5.38;3.23;;;;;;;25.66;35.76;97272.96;258021;1110;22810;-69
2021/05/12 16:59:13;;;;;;;9.18;2.95;;;;;;;25.33;35.79;97270.16;258016;1111;22818;-69
2021/05/12 17:05:37;;;;;;;6.33;2.80;;;;;;;24.99;36.08;97269.24;257704;1103;22867;-69
2021/05/12 17:39:30;;;;;;;;;;;;;;;;;;;;;
2021/05/12 17:46:23;;;;;;;7.97;5.60;;;;;;;23.61;41.74;97340.98;258059;1103;22797;-69
2021/05/12 17:52:39;;;;;;;8.03;6.90;;;;;;;23.05;45.74;97361.10;258078;1105;22962;-68
2021/05/12 17:59:06;;;;;;;10.03;9.00;;;;;;;22.30;49.60;97389.81;258248;1110;22787;-70
2021/05/12 18:05:41;;;;;;;;;;;;;;;;;;;;;
2021/05/12 18:19:05;;;;;;;11.28;10.08;;;;;;;20.63;55.84;97394.20;258112;1103;22852;-69
2021/05/12 18:26:10;;;;;;;13.58;12.18;;;;;;;20.27;57.59;97409.71;257929;1111;22776;-69
2021/05/12 18:38:35;;;;;;;12.93;11.63;;;;;;;19.47;60.86;97452.09;259482;1106;22807;-68
2021/05/12 18:44:30;;;;;;;11.35;10.25;;;;;;;19.25;61.24;97462.05;259463;1106;26388;-69
2021/05/12 18:50:22;;;;;;;12.55;10.95;;;;;;;19.11;61.32;97458.09;258328;1105;22885;-69
2021/05/12 18:56:22;;;;;;;9.43;6.80;;;;;;;18.94;61.47;97462.23;259440;1103;22858;-69
2021/05/12 19:02:39;;;;;;;8.50;6.70;;;;;;;18.76;61.37;97491.09;258206;1110;22826;-69
2021/05/12 19:08:33;;;;;;;;;;;;;;;;;;;;;
2021/05/12 19:43:05;;;;;;;7.00;6.30;;;;;;;17.39;65.64;97492.19;257925;1103;22813;-70
2021/05/12 20:18:26;;;;;;;10.10;9.10;;;;;;;16.99;69.87;97461.06;259041;1110;22806;-69
2021/05/12 20:25:13;;;;;;;15.20;12.85;;;;;;;17.00;70.66;97457.20;257896;1110;22854;-69
2021/05/12 20:46:02;;;;;;;;;;;;;;;;;;;;;
2021/05/12 20:52:38;;;;;;;15.05;13.35;;;;;;;16.78;70.65;97483.88;257862;1103;22866;-70
2021/05/12 20:58:52;;;;;;;14.45;11.85;;;;;;;16.71;70.44;97495.34;258057;1103;25912;-69
2021/05/12 21:12:27;;;;;;;;;;;;;;;;;;;;;
2021/05/12 21:26:40;;;;;;;11.37;9.07;;;;;;;16.50;70.37;97514.67;258044;1103;27660;-69
2021/05/12 21:40:41;;;;;;;6.27;5.20;;;;;;;16.56;70.41;97497.05;257976;1103;27067;-69
2021/05/12 21:53:42;;;;;;;5.75;5.15;;;;;;;16.60;69.34;97494.38;258665;1103;25985;-68
2021/05/12 22:27:42;;;;;;;4.75;4.10;;;;;;;16.17;68.30;97483.58;259196;1103;27604;-69
2021/05/12 22:33:40;;;;;;;;;;;;;;;15.95;68.67;97484.27;258321;1110;22845;-69
2021/05/12 22:40:08;;;;;;;5.20;3.70;;;;;;;15.79;69.05;97474.32;257895;1105;24543;-68
2021/05/12 22:59:34;;;;;;;;;;;;;;;;;;;;;
2021/05/12 23:13:05;;;;;;;5.40;4.65;;;;;;;15.01;71.07;97441.75;259473;1103;23450;-70
2021/05/12 23:19:34;;;;;;;5.45;4.90;;;;;;;14.95;71.43;97432.38;259504;1103;27055;-69
2021/05/12 23:26:20;;;;;;;;;;;;;;;;;;;;;
2021/05/12 23:40:13;;;;;;;6.10;5.45;;;;;;;14.83;72.28;97417.88;257886;1103;22803;-70
